Stormwatcher's Retreat Logo




                  Temp     Hi    Low   Out    Dew  Wind  Wind   Wind    Hi    Hi   Wind   Heat    THW   THSW                Rain  Solar   Solar Hi Solar   UV    UV    Hi     Heat    Cool    In     In    In     In     In   In Air          Wind  Wind    ISS   Arc.
  Date    Time     Out   Temp   Temp   Hum    Pt. Speed   Dir    Run Speed   Dir  Chill  Index  Index  Index   Bar    Rain  Rate   Rad.  Energy    Rad.  Index  Dose   UV     D-D     D-D    Temp   Hum    Dew   Heat    EMC Density     ET   Samp   Tx   Recept  Int.
------------------------------------------------------------------------------------------------------------------------------------------------------------------------------------------------------------------------------------------------------------------------
 7/19/24 12:10a   54.6   54.9   54.6    97   53.8   1.0   SSW   0.17   2.0   SSW   54.6   54.9   54.9   52.0  30.185  0.00  0.00     0     0.00      0     0.0  0.00   0.0   0.072   0.000   73.6    55   56.4   73.7  10.08  .0739    0.000   201    7    100.0   10 
 7/19/24 12:20a   54.4   54.6   54.4    97   53.6   1.0   SSW   0.17   2.0   SSW   54.4   54.7   54.7   51.8  30.187  0.00  0.00     0     0.00      0     0.0  0.00   0.0   0.074   0.000   73.5    55   56.3   73.6  10.08  .0740    0.000   204    7    100.0   10 
 7/19/24 12:30a   54.3   54.4   54.2    97   53.5   0.0   SSW   0.00   2.0   SSW   54.3   54.6   54.6   51.7  30.185  0.00  0.00     0     0.00      0     0.0  0.00   0.0   0.074   0.000   73.5    55   56.3   73.6  10.08  .0740    0.000   204    7    100.0   10 
 7/19/24 12:40a   54.3   54.4   54.2    97   53.5   0.0   SSW   0.00   1.0   SSW   54.3   54.6   54.6   51.7  30.187  0.00  0.00     0     0.00      0     0.0  0.00   0.0   0.074   0.000   73.4    55   56.2   73.5  10.08  .0740    0.000   204    7    100.0   10 
 7/19/24 12:50a   54.3   54.4   54.3    97   53.5   0.0   SSW   0.00   1.0   SSW   54.3   54.6   54.6   51.7  30.192  0.00  0.00     0     0.00      0     0.0  0.00   0.0   0.074   0.000   73.4    55   56.2   73.5  10.08  .0740    0.000   202    7    100.0   10 
 7/19/24  1:00a   54.3   54.4   54.3    97   53.5   0.0   ---   0.00   0.0   ---   54.3   54.6   54.6   51.7  30.191  0.00  0.00     0     0.00      0     0.0  0.00   0.0   0.074   0.000   73.3    55   56.2   73.4  10.08  .0740    0.000   203    7    100.0   10 
 7/19/24  1:10a   54.2   54.3   54.2    97   53.4   0.0   ---   0.00   0.0   ---   54.2   54.5   54.5   51.6  30.190  0.00  0.00     0     0.00      0     0.0  0.00   0.0   0.075   0.000   73.3    55   56.2   73.4  10.08  .0740    0.000   204    7    100.0   10 
 7/19/24  1:20a   54.0   54.2   54.0    97   53.2   0.0   ---   0.00   0.0   ---   54.0   54.3   54.3   51.4  30.186  0.00  0.00     0     0.00      0     0.0  0.00   0.0   0.076   0.000   73.2    55   56.1   73.2  10.09  .0740    0.000   201    7    100.0   10 
 7/19/24  1:30a   53.9   54.0   53.9    97   53.1   0.0   ---   0.00   0.0   ---   53.9   54.2   54.2   51.3  30.187  0.00  0.00     0     0.00      0     0.0  0.00   0.0   0.077   0.000   73.2    55   56.1   73.2  10.09  .0740    0.000   204    7    100.0   10 
 7/19/24  1:40a   53.8   53.9   53.8    97   53.0   0.0   ---   0.00   0.0   ---   53.8   54.1   54.1   51.1  30.185  0.00  0.00     0     0.00      0     0.0  0.00   0.0   0.078   0.000   73.1    55   56.0   73.1  10.09  .0740    0.000   204    7    100.0   10 
 7/19/24  1:50a   53.8   53.8   53.7    97   53.0   0.0   ---   0.00   0.0   ---   53.8   54.1   54.1   51.1  30.184  0.00  0.00     0     0.00      0     0.0  0.00   0.0   0.078   0.000   73.0    55   55.9   73.0  10.09  .0740    0.000   204    7    100.0   10 
 7/19/24  2:00a   53.6   53.8   53.5    98   53.0   0.0   ---   0.00   0.0   ---   53.6   53.9   53.9   51.0  30.186  0.00  0.00     0     0.00      0     0.0  0.00   0.0   0.079   0.000   73.0    55   55.9   73.0  10.09  .0740    0.000   200    7    100.0   10 
 7/19/24  2:10a   53.4   53.6   53.3    97   52.6   0.0   ---   0.00   0.0   ---   53.4   53.7   53.7   50.7  30.185  0.00  0.00     0     0.00      0     0.0  0.00   0.0   0.081   0.000   72.9    55   55.8   72.9  10.09  .0741    0.000   198    7    100.0   10 
 7/19/24  2:20a   53.2   53.4   53.2    97   52.4   0.0   ---   0.00   0.0   ---   53.2   53.5   53.5   50.5  30.185  0.00  0.00     0     0.00      0     0.0  0.00   0.0   0.082   0.000   72.8    55   55.7   72.7  10.09  .0741    0.000   202    7    100.0   10 
 7/19/24  2:30a   53.0   53.2   53.0    97   52.2   0.0   ---   0.00   0.0   ---   53.0   53.3   53.3   50.3  30.184  0.00  0.00     0     0.00      0     0.0  0.00   0.0   0.083   0.000   72.7    54   55.1   72.5   9.90  .0741    0.000   203    7    100.0   10 
 7/19/24  2:40a   52.9   53.0   52.9    98   52.4   0.0   ---   0.00   0.0   ---   52.9   53.3   53.3   50.3  30.181  0.00  0.00     0     0.00      0     0.0  0.00   0.0   0.084   0.000   72.7    54   55.1   72.5   9.90  .0741    0.000   205    7    100.0   10 
 7/19/24  2:50a   53.1   53.1   52.9    98   52.6   0.0   ---   0.00   0.0   ---   53.1   53.5   53.5   50.5  30.184  0.00  0.00     0     0.00      0     0.0  0.00   0.0   0.083   0.000   72.6    54   55.0   72.3   9.90  .0741    0.000   203    7    100.0   10 
 7/19/24  3:00a   53.2   53.2   53.0    98   52.7   0.0   ---   0.00   0.0   ---   53.2   53.6   53.6   50.6  30.186  0.00  0.00     0     0.00      0     0.0  0.00   0.0   0.082   0.000   72.5    54   54.9   72.2   9.90  .0742    0.000   203    7    100.0   10 
 7/19/24  3:10a   53.3   53.4   53.2    98   52.8   0.0   ---   0.00   0.0   ---   53.3   53.6   53.6   50.6  30.192  0.00  0.00     0     0.00      0     0.0  0.00   0.0   0.081   0.000   72.4    54   54.8   72.0   9.90  .0742    0.000   203    7    100.0   10 
 7/19/24  3:20a   53.5   53.5   53.3    98   52.9   0.0   ---   0.00   0.0   ---   53.5   53.8   53.8   50.8  30.189  0.00  0.00     0     0.00      0     0.0  0.00   0.0   0.080   0.000   72.3    54   54.7   71.9   9.90  .0742    0.000   205    7    100.0   10 
 7/19/24  3:30a   53.6   53.7   53.5    98   53.0   0.0   ---   0.00   0.0   ---   53.6   53.9   53.9   51.0  30.189  0.00  0.00     0     0.00      0     0.0  0.00   0.0   0.079   0.000   72.3    54   54.7   71.9   9.90  .0742    0.000   203    7    100.0   10 
 7/19/24  3:40a   53.8   53.9   53.6    98   53.2   0.0   ---   0.00   0.0   ---   53.8   54.1   54.1   51.2  30.192  0.00  0.00     0     0.00      0     0.0  0.00   0.0   0.078   0.000   72.2    54   54.6   71.7   9.91  .0742    0.000   203    7    100.0   10 
 7/19/24  3:50a   53.9   53.9   53.8    98   53.3   0.0   ---   0.00   0.0   ---   53.9   54.2   54.2   51.3  30.189  0.00  0.00     0     0.00      0     0.0  0.00   0.0   0.077   0.000   72.1    54   54.5   71.6   9.91  .0742    0.000   203    7    100.0   10 
 7/19/24  4:00a   54.1   54.1   53.9    98   53.5   0.0   ---   0.00   0.0   ---   54.1   54.4   54.4   51.5  30.189  0.00  0.00     0     0.00      0     0.0  0.00   0.0   0.076   0.000   72.1    54   54.5   71.6   9.91  .0742    0.000   203    7    100.0   10 
 7/19/24  4:10a   54.3   54.4   54.1    98   53.7   0.0   ---   0.00   0.0   ---   54.3   54.6   54.6   51.7  30.185  0.00  0.00     0     0.00      0     0.0  0.00   0.0   0.074   0.000   72.0    54   54.4   71.4   9.91  .0742    0.000   204    7    100.0   10 
 7/19/24  4:20a   54.2   54.4   54.1    98   53.6   0.0   ---   0.00   0.0   ---   54.2   54.5   54.5   51.6  30.183  0.00  0.00     0     0.00      0     0.0  0.00   0.0   0.075   0.000   72.0    54   54.4   71.4   9.91  .0742    0.000   201    7    100.0   10 
 7/19/24  4:30a   54.2   54.3   54.0    98   53.6   0.0   ESE   0.00   3.0   ESE   54.2   54.5   54.5   51.6  30.187  0.00  0.00     0     0.00      0     0.0  0.00   0.0   0.075   0.000   71.9    55   54.9   71.4  10.11  .0742    0.000   199    7    100.0   10 
 7/19/24  4:40a   54.5   54.5   54.2    98   53.9   1.0   ESE   0.17   4.0   ESE   54.5   54.8   54.8   51.9  30.186  0.00  0.00     0     0.00      0     0.0  0.00   0.0   0.073   0.000   71.8    55   54.8   71.2  10.11  .0743    0.000   205    7    100.0   10 
 7/19/24  4:50a   54.8   54.8   54.5    99   54.5   1.0   ESE   0.17   4.0   ENE   54.8   55.2   55.2   52.3  30.187  0.00  0.00     0     0.00      0     0.0  0.00   0.0   0.071   0.000   71.8    55   54.8   71.2  10.11  .0743    0.000   201    7    100.0   10 
 7/19/24  5:00a   55.1   55.1   54.8    98   54.5   2.0   ENE   0.33   5.0   ENE   55.1   55.4   55.4   52.5  30.188  0.00  0.00     0     0.00      0     0.0  0.00   0.0   0.069   0.000   71.8    55   54.8   71.2  10.11  .0743    0.000   203    7    100.0   10 
 7/19/24  5:10a   55.2   55.3   55.1    98   54.6   1.0   ENE   0.17   4.0   ENE   55.2   55.5   55.5   52.6  30.189  0.00  0.00     0     0.00      0     0.0  0.00   0.0   0.068   0.000   71.7    55   54.7   71.0  10.12  .0743    0.000   203    7    100.0   10 
 7/19/24  5:20a   55.1   55.3   55.1    98   54.5   1.0   ESE   0.17   2.0   ESE   55.1   55.4   55.4   52.5  30.191  0.00  0.00     0     0.00      0     0.0  0.00   0.0   0.069   0.000   71.6    55   54.6   70.9  10.12  .0743    0.000   203    7    100.0   10 
 7/19/24  5:30a   54.9   55.1   54.9    98   54.3   1.0     E   0.17   3.0     E   54.9   55.2   55.2   52.3  30.193  0.00  0.00     0     0.00      0     0.0  0.00   0.0   0.070   0.000   71.6    55   54.6   70.9  10.12  .0743    0.000   204    7    100.0   10 
 7/19/24  5:40a   54.7   54.9   54.6    98   54.1   1.0    SE   0.17   3.0     E   54.7   55.0   55.0   52.1  30.193  0.00  0.00     0     0.00      0     0.0  0.00   0.0   0.072   0.000   71.5    55   54.5   70.8  10.12  .0743    0.000   201    7    100.0   10 
 7/19/24  5:50a   54.8   54.8   54.6    98   54.2   0.0    SE   0.00   2.0    SE   54.8   55.1   55.1   52.3  30.190  0.00  0.00     2     0.03      5     0.0  0.00   0.0   0.071   0.000   71.5    55   54.5   70.8  10.12  .0743    0.000   203    7    100.0   10 
 7/19/24  6:00a   54.6   54.8   54.5    98   54.0   1.0    SE   0.17   4.0    NE   54.6   54.9   54.9   52.2  30.188  0.00  0.00     7     0.10      9     0.0  0.00   0.0   0.072   0.000   71.4    55   54.4   70.6  10.12  .0743    0.000   201    7    100.0   10 
 7/19/24  6:10a   55.0   55.0   54.6    98   54.4   1.0   ENE   0.17   4.0   SSE   55.0   55.3   55.3   52.7  30.190  0.00  0.00    12     0.17     14     0.0  0.00   0.0   0.069   0.000   71.4    55   54.4   70.6  10.12  .0743    0.000   202    7    100.0   10 
 7/19/24  6:20a   55.0   55.1   54.9    98   54.4   2.0     E   0.33   5.0   ENE   55.0   55.3   55.3   52.8  30.192  0.00  0.00    17     0.24     19     0.0  0.00   0.0   0.069   0.000   71.3    55   54.3   70.5  10.12  .0744    0.000   201    7    100.0   10 
 7/19/24  6:30a   54.9   55.0   54.8    98   54.3   1.0   ESE   0.17   4.0    SW   54.9   55.2   55.2   52.8  30.193  0.00  0.00    21     0.30     25     0.0  0.00   0.0   0.070   0.000   71.3    55   54.3   70.5  10.12  .0744    0.000   203    7    100.0   10 
 7/19/24  6:40a   55.1   55.1   54.9    98   54.5   2.0     E   0.33   6.0   ESE   55.1   55.4   55.4   53.2  30.199  0.00  0.00    29     0.42     33     0.0  0.00   0.0   0.069   0.000   71.3    55   54.3   70.5  10.12  .0744    0.000   204    7    100.0   10 
 7/19/24  6:50a   55.1   55.1   55.0    98   54.5   2.0     S   0.33   5.0   SSE   55.1   55.4   55.4   55.8  30.203  0.00  0.00    46     0.66     76     0.0  0.00   0.0   0.069   0.000   71.3    55   54.3   70.5  10.12  .0744    0.000   204    7    100.0   10 
 7/19/24  7:00a   54.6   55.1   54.6    98   54.0   3.0     S   0.50   6.0   SSW   54.6   54.9   54.9   56.8  30.204  0.00  0.00    83     1.19     93     0.0  0.00   0.0   0.072   0.000   71.3    55   54.3   70.5  10.12  .0744    0.001   202    7    100.0   10 
 7/19/24  7:10a   54.5   54.6   54.5    98   53.9   3.0     S   0.50   5.0     S   54.5   54.8   54.8   57.4  30.206  0.00  0.00   102     1.46    105     0.0  0.00   0.0   0.073   0.000   71.3    55   54.3   70.5  10.12  .0744    0.000   203    7    100.0   10 
 7/19/24  7:20a   54.8   54.8   54.5    99   54.5   2.0     S   0.33   4.0   SSE   54.8   55.2   55.2   57.7  30.204  0.00  0.00   102     1.46    113     0.0  0.00   0.0   0.071   0.000   71.3    55   54.3   70.5  10.12  .0744    0.000   203    7    100.0   10 
 7/19/24  7:30a   54.8   54.8   54.7    98   54.2   3.0     S   0.50   5.0   SSE   54.8   55.1   55.1   56.8  30.209  0.00  0.00    84     1.20    105     0.0  0.00   0.0   0.071   0.000   71.3    55   54.3   70.5  10.12  .0744    0.000   203    7    100.0   10 
 7/19/24  7:40a   54.8   54.9   54.7    99   54.5   2.0     S   0.33   4.0   SSE   54.8   55.2   55.2   57.3  30.211  0.00  0.00    96     1.38    102     0.0  0.00   0.0   0.071   0.000   71.3    55   54.3   70.5  10.12  .0744    0.000   200    7    100.0   10 
 7/19/24  7:50a   54.7   54.9   54.7    98   54.1   1.0   SSE   0.17   4.0   SSE   54.7   55.0   55.0   57.7  30.211  0.00  0.00   116     1.66    132     0.1  0.01   0.5   0.072   0.000   71.3    55   54.3   70.5  10.12  .0744    0.000   203    7    100.0   10 
 7/19/24  8:00a   54.8   54.9   54.7    99   54.5   2.0   SSE   0.33   4.0   SSE   54.8   55.2   55.2   58.7  30.210  0.00  0.00   142     2.04    174     0.6  0.04   0.6   0.071   0.000   71.4    55   54.4   70.6  10.12  .0744    0.002   201    7    100.0   10 
 7/19/24  8:10a   55.0   55.0   54.8    99   54.7   2.0   SSW   0.33   3.0   SSW   55.0   55.4   55.4   58.7  30.210  0.00  0.00   140     2.01    204     0.7  0.05   0.7   0.069   0.000   71.4    55   54.4   70.6  10.12  .0744    0.000   201    7    100.0   10 
 7/19/24  8:20a   55.5   55.5   55.0    99   55.2   1.0   SSW   0.17   2.0   SSW   55.5   55.9   55.9   60.1  30.213  0.00  0.00   173     2.48    193     0.7  0.05   0.7   0.066   0.000   71.4    55   54.4   70.6  10.12  .0744    0.000   200    7    100.0   10 
 7/19/24  8:30a   55.1   55.5   55.1    99   54.8   2.0   SSW   0.33   3.0   SSW   55.1   55.5   55.5   60.4  30.212  0.00  0.00   205     2.94    234     0.8  0.06   0.9   0.069   0.000   71.5    55   54.5   70.8  10.12  .0744    0.000   203    7    100.0   10 
 7/19/24  8:40a   55.2   55.2   55.1    99   54.9   2.0   SSW   0.33   3.0   SSW   55.2   55.6   55.6   60.3  30.211  0.00  0.00   203     2.91    221     0.9  0.06   0.9   0.068   0.000   71.6    55   54.6   70.9  10.12  .0744    0.000   204    7    100.0   10 
 7/19/24  8:50a   55.5   55.5   55.1    99   55.2   2.0   SSW   0.33   3.0   SSW   55.5   55.9   55.9   61.0  30.211  0.00  0.00   220     3.15    230     1.0  0.07   1.0   0.066   0.000   71.6    55   54.6   70.9  10.12  .0744    0.000   204    7    100.0   10 
 7/19/24  9:00a   55.8   55.8   55.4    99   55.5   1.0   SSW   0.17   3.0   SSW   55.8   56.2   56.2   61.9  30.212  0.00  0.00   250     3.58    295     1.1  0.08   1.2   0.064   0.000   71.6    55   54.6   70.9  10.12  .0744    0.004   203    7    100.0   10 
 7/19/24  9:10a   56.1   56.2   55.7    99   55.8   2.0   NNE   0.33   4.0     N   56.1   56.5   56.5   63.7  30.211  0.00  0.00   320     4.59    367     1.4  0.10   1.5   0.062   0.000   71.7    55   54.7   71.0  10.12  .0743    0.000   204    7    100.0   10 
 7/19/24  9:20a   56.2   56.2   55.7    99   55.9   3.0   NNW   0.50   4.0   NNW   56.2   56.6   56.6   64.8  30.213  0.00  0.00   376     5.39    397     1.6  0.11   1.6   0.061   0.000   71.7    56   55.2   71.1  10.32  .0743    0.000   200    7    100.0   10 
 7/19/24  9:30a   55.8   56.2   55.8    99   55.5   3.0     N   0.50   6.0   WNW   55.8   56.2   56.2   62.8  30.216  0.00  0.00   308     4.42    343     1.5  0.11   1.6   0.064   0.000   71.8    56   55.3   71.3  10.31  .0743    0.000   202    7    100.0   10 
 7/19/24  9:40a   55.6   55.8   55.4    99   55.3   4.0   NNW   0.67   6.0   NNW   55.3   56.0   55.7   62.9  30.215  0.00  0.00   348     4.99    441     1.8  0.13   2.1   0.065   0.000   71.9    56   55.3   71.4  10.31  .0743    0.000   203    7    100.0   10 
 7/19/24  9:50a   56.0   56.1   55.6    99   55.7   4.0   NNW   0.67   6.0   NNW   55.8   56.4   56.2   66.5  30.218  0.00  0.00   543     7.78    589     2.5  0.18   2.6   0.063   0.000   71.9    56   55.3   71.4  10.31  .0743    0.000   204    7    100.0   10 
 7/19/24 10:00a   56.3   56.5   56.0    99   56.0   4.0     N   0.67   7.0     N   56.2   56.7   56.6   67.0  30.221  0.00  0.00   562     8.06    610     2.8  0.20   3.0   0.060   0.000   72.0    56   55.4   71.6  10.31  .0743    0.008   204    7    100.0   10 
 7/19/24 10:10a   56.6   56.6   56.1    99   56.3   5.0     N   0.83   8.0   NNE   56.0   57.0   56.4   67.4  30.217  0.00  0.00   665     9.53    687     3.4  0.24   3.5   0.058   0.000   71.9    56   55.3   71.4  10.31  .0743    0.000   203    7    100.0   10 
 7/19/24 10:20a   56.8   56.8   56.3    99   56.5   5.0     N   0.83   8.0   NNE   56.2   57.2   56.6   67.6  30.216  0.00  0.00   682     9.78    694     3.7  0.26   3.8   0.057   0.000   71.8    56   55.3   71.3  10.31  .0743    0.000   204    7    100.0   10 
 7/19/24 10:30a   57.0   57.3   56.8    99   56.7   5.0     N   0.83   8.0     N   56.4   57.4   56.8   67.8  30.212  0.00  0.00   705    10.11    715     4.0  0.29   4.1   0.056   0.000   71.7    56   55.2   71.1  10.32  .0743    0.000   204    7    100.0   10 
 7/19/24 10:40a   57.5   57.5   57.0    99   57.2   5.0     N   0.83   9.0    NE   57.0   57.9   57.4   68.5  30.212  0.00  0.00   726    10.41    740     4.2  0.30   4.3   0.052   0.000   71.7    56   55.2   71.1  10.32  .0743    0.000   203    7    100.0   10 
 7/19/24 10:50a   56.6   57.5   56.6    98   56.0   6.0     N   1.00   9.0     N   55.5   56.9   55.8   66.9  30.209  0.00  0.00   736    10.55    766     4.4  0.31   4.6   0.058   0.000   71.8    56   55.3   71.3  10.31  .0743    0.000   204    7    100.0   10 
 7/19/24 11:00a   56.8   56.8   56.6    99   56.5   7.0     N   1.17  10.0     N   55.4   57.2   55.8   66.7  30.212  0.00  0.00   758    10.87    773     4.7  0.34   4.8   0.057   0.000   71.9    56   55.3   71.4  10.31  .0743    0.014   204    7    100.0   10 
 7/19/24 11:10a   57.5   57.6   56.8    98   56.9   7.0     N   1.17   9.0   NNE   56.2   57.8   56.5   67.4  30.212  0.00  0.00   784    11.24    791     5.0  0.36   5.1   0.052   0.000   71.9    56   55.3   71.4  10.31  .0743    0.000   202    7    100.0   10 
 7/19/24 11:20a   58.3   58.3   57.5    98   57.7   6.0     N   1.00   9.0   NNE   57.6   58.7   58.0   69.2  30.211  0.00  0.00   800    11.47    807     5.2  0.37   5.3   0.047   0.000   72.0    56   55.4   71.6  10.31  .0743    0.000   201    7    100.0   10 
 7/19/24 11:30a   58.5   58.6   58.3    98   57.9   5.0     N   0.83   9.0   NNW   58.2   58.9   58.6   69.8  30.212  0.00  0.00   818    11.73    824     5.5  0.39   5.6   0.045   0.000   72.0    56   55.4   71.6  10.31  .0743    0.000   202    7    100.0   10 
 7/19/24 11:40a   58.6   58.8   58.5    97   57.8   5.0     N   0.83   8.0   NNE   58.3   59.0   58.7   69.9  30.216  0.00  0.00   831    11.91    837     5.7  0.41   5.8   0.044   0.000   72.0    56   55.4   71.6  10.31  .0743    0.000   204    7    100.0   10 
 7/19/24 11:50a   58.9   58.9   58.5    97   58.1   6.0     N   1.00   9.0     N   58.3   59.3   58.7   69.9  30.210  0.00  0.00   844    12.10    851     5.9  0.42   6.0   0.042   0.000   72.0    56   55.4   71.6  10.31  .0743    0.000   203    7    100.0   10 
 7/19/24 12:00p   59.1   59.3   58.9    97   58.2   7.0     N   1.17   9.0   NNW   58.1   59.5   58.5   69.5  30.213  0.00  0.00   856    12.27    860     6.1  0.44   6.2   0.041   0.000   72.1    56   55.5   71.7  10.31  .0742    0.016   202    7    100.0   10 
 7/19/24 12:10p   59.1   59.3   59.1    97   58.2   6.0     N   1.00   9.0     N   58.5   59.5   58.9   70.1  30.212  0.00  0.00   867    12.43    870     6.3  0.45   6.4   0.041   0.000   72.0    56   55.4   71.6  10.31  .0743    0.000   202    7    100.0   10 
 7/19/24 12:20p   59.6   59.6   59.1    97   58.7   7.0     N   1.17  10.0     N   58.7   60.1   59.2   70.2  30.213  0.00  0.00   875    12.54    881     6.5  0.46   6.6   0.038   0.000   72.1    57   56.0   71.8  10.47  .0742    0.000   203    7    100.0   10 
 7/19/24 12:30p   59.7   59.7   59.4    97   58.8   7.0     N   1.17  10.0   NNE   58.8   60.2   59.3   70.3  30.215  0.00  0.00   882    12.64    886     6.6  0.47   6.7   0.037   0.000   72.1    57   56.0   71.8  10.47  .0742    0.000   203    7    100.0   10 
 7/19/24 12:40p   60.3   60.3   59.7    96   59.2   6.0     N   1.00  10.0   NNE   60.0   60.8   60.5   71.7  30.213  0.00  0.00   889    12.74    893     6.8  0.49   6.8   0.033   0.000   72.2    57   56.1   72.0  10.46  .0742    0.000   203    7    100.0   10 
 7/19/24 12:50p   60.3   60.7   60.3    95   58.9   6.0     N   1.00   9.0     N   60.0   60.7   60.4   71.6  30.215  0.00  0.00   894    12.82    898     6.9  0.49   6.9   0.033   0.000   72.2    57   56.1   72.0  10.46  .0742    0.000   204    7    100.0   10 
 7/19/24  1:00p   60.9   60.9   60.3    95   59.5   6.0     N   1.00  10.0   NNE   60.7   61.4   61.2   72.4  30.213  0.00  0.00   898    12.87    900     7.0  0.50   7.0   0.028   0.000   72.2    57   56.1   72.0  10.46  .0742    0.018   204    7    100.0   10 
 7/19/24  1:10p   60.7   61.0   60.5    95   59.3   8.0     N   1.33  10.0   NNE   59.3   61.2   59.8   70.3  30.214  0.00  0.00   900    12.90    902     7.0  0.50   7.0   0.030   0.000   72.3    57   56.2   72.1  10.46  .0742    0.000   201    7    100.0   10 
 7/19/24  1:20p   60.5   60.8   60.5    95   59.1   8.0     N   1.33  11.0     N   59.1   61.0   59.6   70.1  30.211  0.00  0.00   900    12.90    902     7.0  0.50   7.0   0.031   0.000   72.3    57   56.2   72.1  10.46  .0742    0.000   202    7    100.0   10 
 7/19/24  1:30p   60.3   60.6   60.3    95   58.9   8.0     N   1.33  11.0     N   58.9   60.7   59.3   69.7  30.213  0.00  0.00   899    12.89    902     7.0  0.50   7.0   0.033   0.000   72.5    57   56.4   72.4  10.45  .0742    0.000   202    7    100.0   10 
 7/19/24  1:40p   60.7   60.7   60.0    95   59.3   8.0     N   1.33  12.0   NNE   59.3   61.2   59.8   70.3  30.209  0.00  0.00   896    12.84    898     7.0  0.50   7.0   0.030   0.000   72.5    57   56.4   72.4  10.45  .0741    0.000   203    7    100.0   10 
 7/19/24  1:50p   60.8   60.9   60.6    95   59.4   8.0     N   1.33  13.0   NNW   59.5   61.3   60.0   70.5  30.208  0.00  0.00   892    12.79    895     7.0  0.50   7.0   0.029   0.000   72.5    57   56.4   72.4  10.45  .0741    0.000   203    7    100.0   10 
 7/19/24  2:00p   61.1   61.2   60.7    94   59.4   8.0   NNE   1.33  13.0   NNE   59.8   61.6   60.3   70.8  30.206  0.00  0.00   886    12.70    889     6.9  0.49   6.9   0.027   0.000   72.5    57   56.4   72.4  10.45  .0741    0.019   202    7    100.0   10 
 7/19/24  2:10p   61.0   61.3   61.0    94   59.3   8.0     N   1.33  13.0     N   59.7   61.5   60.2   70.7  30.207  0.00  0.00   880    12.61    882     6.8  0.49   6.9   0.028   0.000   72.4    57   56.3   72.3  10.45  .0742    0.000   201    7    100.0   10 
 7/19/24  2:20p   61.0   61.2   60.9    93   59.0   8.0     N   1.33  12.0    NE   59.7   61.5   60.2   70.7  30.207  0.00  0.00   872    12.50    877     6.7  0.48   6.7   0.028   0.000   72.4    57   56.3   72.3  10.45  .0742    0.000   203    7    100.0   10 
 7/19/24  2:30p   61.0   61.2   60.9    94   59.3   7.0     N   1.17  12.0   NNW   60.4   61.5   60.9   71.9  30.209  0.00  0.00   865    12.40    868     6.6  0.47   6.7   0.028   0.000   72.5    57   56.4   72.4  10.45  .0741    0.000   204    7    100.0   10 
 7/19/24  2:40p   61.4   61.4   61.0    94   59.7   7.0     N   1.17  11.0     N   60.9   62.0   61.5   72.5  30.210  0.00  0.00   854    12.24    858     6.5  0.46   6.5   0.025   0.000   72.5    57   56.4   72.4  10.45  .0742    0.000   202    7    100.0   10 
 7/19/24  2:50p   61.7   61.7   61.4    93   59.7   7.0     N   1.17  13.0     N   61.3   62.3   61.9   72.9  30.210  0.00  0.00   841    12.06    847     6.3  0.45   6.4   0.023   0.000   72.5    57   56.4   72.4  10.45  .0742    0.000   205    7    100.0   10 
 7/19/24  3:00p   61.7   61.8   61.5    93   59.7   8.0   NNE   1.33  13.0   NNE   60.5   62.3   61.1   71.6  30.209  0.00  0.00   828    11.87    835     6.1  0.44   6.2   0.023   0.000   72.5    57   56.4   72.4  10.45  .0741    0.018   201    7    100.0   10 
 7/19/24  3:10p   62.3   62.3   61.7    92   59.9   8.0   NNE   1.33  13.0     N   61.3   62.9   61.9   72.4  30.205  0.00  0.00   814    11.67    821     5.9  0.42   6.0   0.019   0.000   72.5    57   56.4   72.4  10.45  .0741    0.000   203    7    100.0   10 
 7/19/24  3:20p   62.3   62.5   62.2    93   60.2   7.0   NNE   1.17  13.0   NNE   62.1   63.0   62.8   73.8  30.203  0.00  0.00   800    11.47    807     5.7  0.41   5.8   0.019   0.000   72.6    57   56.5   72.6  10.45  .0741    0.000   204    7    100.0   10 
 7/19/24  3:30p   62.2   62.5   62.2    92   59.8   7.0   NNE   1.17  13.0     N   61.9   62.8   62.5   73.5  30.201  0.00  0.00   783    11.22    789     5.5  0.39   5.6   0.019   0.000   72.7    57   56.6   72.7  10.44  .0741    0.000   202    7    100.0   10 
 7/19/24  3:40p   62.3   62.3   62.1    93   60.2   7.0   NNE   1.17  12.0   NNW   62.1   63.0   62.8   73.8  30.198  0.00  0.00   763    10.94    772     5.3  0.38   5.4   0.019   0.000   72.8    57   56.7   72.9  10.44  .0741    0.000   203    7    100.0   10 
 7/19/24  3:50p   62.6   62.6   62.4    92   60.2   7.0   NNE   1.17  12.0    NE   62.4   63.3   63.1   74.1  30.199  0.00  0.00   746    10.69    754     5.0  0.36   5.1   0.017   0.000   72.9    57   56.8   73.0  10.43  .0741    0.000   201    7    100.0   10 
 7/19/24  4:00p   62.4   62.7   62.0    93   60.3   8.0   NNE   1.33  13.0   NNE   61.4   63.1   62.1   72.6  30.197  0.00  0.00   727    10.42    737     4.7  0.34   4.9   0.018   0.000   72.9    57   56.8   73.0  10.43  .0740    0.017   204    7    100.0   10 
 7/19/24  4:10p   62.0   62.3   61.8    92   59.6   8.0   NNE   1.33  14.0   NNE   60.9   62.6   61.5   71.9  30.197  0.00  0.00   705    10.11    715     4.5  0.32   4.6   0.021   0.000   73.0    57   56.9   73.2  10.43  .0740    0.000   204    7    100.0   10 
 7/19/24  4:20p   61.0   62.0   60.9    92   58.7   9.0   NNE   1.50  14.0     N   58.9   61.4   59.3   69.3  30.196  0.00  0.00   681     9.76    691     4.2  0.30   4.3   0.028   0.000   73.1    57   57.0   73.3  10.43  .0740    0.000   199    7    100.0   10 
 7/19/24  4:30p   61.8   62.0   61.0    92   59.5   8.0    NE   1.33  14.0    NE   60.7   62.4   61.3   71.7  30.193  0.00  0.00   659     9.45    671     3.9  0.28   4.0   0.022   0.000   73.1    57   57.0   73.3  10.43  .0740    0.000   201    7    100.0   10 
 7/19/24  4:40p   61.1   62.0   61.1    91   58.5  10.0   NNE   1.67  15.0   NNW   58.2   61.5   58.6   68.2  30.191  0.00  0.00   636     9.12    649     3.7  0.26   3.8   0.027   0.000   73.1    57   57.0   73.3  10.43  .0740    0.000   205    7    100.0   10 
 7/19/24  4:50p   60.8   61.2   60.7    92   58.5   9.0   NNE   1.50  14.0   NNE   58.7   61.2   59.1   69.0  30.189  0.00  0.00   613     8.79    624     3.4  0.24   3.5   0.029   0.000   73.1    57   57.0   73.3  10.43  .0740    0.000   202    7    100.0   10 
 7/19/24  5:00p   61.5   61.5   60.7    92   59.2   8.0    NE   1.33  14.0   NNW   60.3   62.0   60.8   71.0  30.188  0.00  0.00   586     8.40    599     3.1  0.22   3.2   0.024   0.000   73.2    57   57.1   73.4  10.42  .0740    0.014   201    7    100.0   10 
 7/19/24  5:10p   62.0   62.2   61.4    91   59.3   8.0   NNE   1.33  15.0     N   60.9   62.5   61.4   71.5  30.184  0.00  0.00   560     8.03    573     2.9  0.21   3.0   0.021   0.000   73.2    57   57.1   73.4  10.42  .0740    0.000   203    7    100.0   10 
 7/19/24  5:20p   61.3   62.0   61.3    91   58.7  10.0   NNE   1.67  16.0   NNE   58.5   61.8   59.0   68.3  30.186  0.00  0.00   534     7.65    545     2.6  0.19   2.7   0.026   0.000   73.2    57   57.1   73.4  10.42  .0740    0.000   203    7    100.0   10 
 7/19/24  5:30p   61.7   61.7   61.1    92   59.4   8.0   NNE   1.33  13.0   NNW   60.5   62.2   61.0   71.0  30.184  0.00  0.00   506     7.25    517     2.3  0.16   2.4   0.023   0.000   73.3    57   57.1   73.5  10.42  .0739    0.000   203    7    100.0   10 
 7/19/24  5:40p   61.6   61.9   61.6    90   58.6   9.0   NNE   1.50  13.0     N   59.6   62.1   60.1   69.5  30.182  0.00  0.00   479     6.87    490     2.1  0.15   2.2   0.024   0.000   73.3    57   57.1   73.5  10.42  .0739    0.000   204    7    100.0   10 
 7/19/24  5:50p   61.7   62.0   61.5    91   59.0   8.0   NNE   1.33  14.0     N   60.5   62.2   61.0   70.7  30.181  0.00  0.00   453     6.49    466     1.9  0.14   2.0   0.023   0.000   73.1    57   57.0   73.3  10.43  .0740    0.000   203    7    100.0   10 
 7/19/24  6:00p   60.6   61.7   60.6    91   58.0  10.0   NNE   1.67  14.0   NNE   57.7   61.0   58.1   66.7  30.181  0.00  0.00   425     6.09    438     1.6  0.11   1.7   0.031   0.000   73.0    57   56.9   73.2  10.43  .0740    0.011   203    7    100.0   10 
 7/19/24  6:10p   61.0   61.0   60.3    92   58.7   9.0     N   1.50  14.0     N   58.9   61.4   59.3   68.1  30.180  0.00  0.00   396     5.68    408     1.4  0.10   1.5   0.028   0.000   73.1    57   57.0   73.3  10.43  .0740    0.000   202    7    100.0   10 
 7/19/24  6:20p   61.0   61.1   60.7    92   58.7   8.0   NNE   1.33  15.0   NNE   59.7   61.4   60.1   68.9  30.180  0.00  0.00   366     5.25    380     1.3  0.09   1.3   0.028   0.000   73.1    57   57.0   73.3  10.43  .0740    0.000   203    7    100.0   10 
 7/19/24  6:30p   61.3   61.3   61.0    92   59.0   8.0    NE   1.33  13.0   NNE   60.1   61.8   60.6   68.5  30.179  0.00  0.00   303     4.34    360     1.0  0.07   1.2   0.026   0.000   73.2    57   57.1   73.4  10.42  .0739    0.000   204    7    100.0   10 
 7/19/24  6:40p   60.7   61.3   60.7    92   58.4   7.0    NE   1.17  13.0   NNE   60.0   61.1   60.4   67.6  30.181  0.00  0.00   255     3.66    287     0.8  0.06   0.9   0.030   0.000   73.3    57   57.1   73.5  10.42  .0739    0.000   202    7    100.0   10 
 7/19/24  6:50p   60.1   60.7   60.1    92   57.8   8.0    NE   1.33  13.0     N   58.6   60.4   58.9   64.3  30.179  0.00  0.00   197     2.82    248     0.6  0.04   0.7   0.034   0.000   73.3    57   57.1   73.5  10.42  .0739    0.000   202    7    100.0   10 
 7/19/24  7:00p   59.6   60.1   59.6    93   57.6   7.0   NNE   1.17  13.0   NNE   58.7   59.9   59.0   64.3  30.180  0.00  0.00   182     2.61    236     0.5  0.04   0.6   0.038   0.000   73.4    57   57.2   73.7  10.41  .0739    0.006   200    7    100.0   10 
 7/19/24  7:10p   59.4   59.6   59.3    94   57.7   7.0   NNE   1.17  13.0   NNE   58.5   59.8   58.9   63.8  30.178  0.00  0.00   166     2.38    200     0.3  0.02   0.5   0.039   0.000   73.5    57   57.3   73.8  10.41  .0739    0.000   203    7    100.0   10 
 7/19/24  7:20p   60.0   60.0   59.4    94   58.3   7.0   NNE   1.17  12.0   NNE   59.2   60.4   59.6   68.1  30.181  0.00  0.00   275     3.94    294     0.0  0.00   0.0   0.035   0.000   73.5    57   57.3   73.8  10.41  .0739    0.000   203    7    100.0   10 
 7/19/24  7:30p   60.2   60.6   60.0    93   58.2   7.0   NNE   1.17  13.0     N   59.4   60.6   59.8   67.1  30.181  0.00  0.00   236     3.38    278     0.0  0.00   0.0   0.033   0.000   73.6    57   57.4   73.9  10.41  .0739    0.000   202    7    100.0   10 
 7/19/24  7:40p   59.7   60.2   59.7    94   58.0   9.0   NNE   1.50  13.0   NNE   57.3   60.1   57.7   62.2  30.182  0.00  0.00   172     2.47    199     0.0  0.00   0.0   0.037   0.000   73.6    57   57.4   73.9  10.41  .0739    0.000   201    7    100.0   10 
 7/19/24  7:50p   58.9   59.7   58.9    94   57.2   7.0   NNE   1.17  12.0   NNE   57.9   59.3   58.3   60.1  30.183  0.00  0.00    82     1.18    130     0.0  0.00   0.0   0.042   0.000   73.6    57   57.4   73.9  10.41  .0739    0.000   202    7    100.0   10 
 7/19/24  8:00p   58.5   58.9   58.5    95   57.1   7.0   NNE   1.17  11.0     N   57.4   58.8   57.7   56.5  30.181  0.00  0.00    61     0.87     70     0.0  0.00   0.0   0.045   0.000   73.6    57   57.4   73.9  10.41  .0739    0.004   204    7    100.0   10 
 7/19/24  8:10p   58.5   58.6   58.4    95   57.1   7.0   NNE   1.17  11.0    NE   57.4   58.8   57.7   56.5  30.181  0.00  0.00    62     0.89     76     0.0  0.00   0.0   0.045   0.000   73.6    58   57.9   74.0  10.61  .0739    0.000   204    7    100.0   10 
 7/19/24  8:20p   58.6   58.7   58.5    95   57.2   6.0   NNE   1.00  10.0     N   57.9   59.0   58.3   56.7  30.180  0.00  0.00    44     0.63     49     0.0  0.00   0.0   0.044   0.000   73.5    58   57.8   73.9  10.61  .0739    0.000   202    7    100.0   10 
 7/19/24  8:30p   58.8   58.8   58.6    95   57.4   5.0   NNE   0.83   9.0   NNE   58.6   59.2   59.0   57.0  30.180  0.00  0.00    26     0.37     32     0.0  0.00   0.0   0.043   0.000   73.5    58   57.8   73.9  10.61  .0739    0.000   202    7    100.0   10 
 7/19/24  8:40p   59.1   59.2   58.8    96   58.0   4.0    NE   0.67   9.0   NNE   59.1   59.5   59.5   57.3  30.179  0.00  0.00    16     0.23     21     0.0  0.00   0.0   0.041   0.000   73.4    58   57.7   73.7  10.61  .0739    0.000   203    7    100.0   10 
 7/19/24  8:50p   59.7   59.7   59.1    95   58.3   4.0    NE   0.67   9.0    NE   59.7   60.1   60.1   57.8  30.177  0.00  0.00     8     0.11     11     0.0  0.00   0.0   0.037   0.000   73.4    58   57.7   73.7  10.61  .0739    0.000   203    7    100.0   10 
 7/19/24  9:00p   60.1   60.1   59.7    95   58.7   6.0    NE   1.00  15.0   NNE   59.7   60.5   60.1   57.6  30.176  0.00  0.00     1     0.01      5     0.0  0.00   0.0   0.034   0.000   73.3    58   57.6   73.6  10.62  .0739    0.001   204    7    100.0   10 
 7/19/24  9:10p   60.1   60.2   60.0    95   58.7   5.0    NE   0.83  12.0    NE   60.1   60.5   60.5   58.0  30.179  0.00  0.00     0     0.00      0     0.0  0.00   0.0   0.034   0.000   73.3    58   57.6   73.6  10.62  .0739    0.000   202    7    100.0   10 
 7/19/24  9:20p   60.1   60.2   60.0    95   58.7   4.0    NE   0.67   9.0   NNE   60.1   60.5   60.5   58.0  30.180  0.00  0.00     0     0.00      0     0.0  0.00   0.0   0.034   0.000   73.3    58   57.6   73.6  10.62  .0739    0.000   204    7    100.0   10 
 7/19/24  9:30p   60.1   60.1   60.1    95   58.7   4.0    NE   0.67   9.0   NNE   60.1   60.5   60.5   58.0  30.183  0.00  0.00     0     0.00      0     0.0  0.00   0.0   0.034   0.000   73.3    58   57.6   73.6  10.62  .0739    0.000   204    7    100.0   10 
 7/19/24  9:40p   60.1   60.1   60.1    95   58.7   4.0    NE   0.67  10.0   ENE   60.1   60.5   60.5   58.0  30.182  0.00  0.00     0     0.00      0     0.0  0.00   0.0   0.034   0.000   73.2    58   57.5   73.5  10.62  .0739    0.000   200    7    100.0   10 
 7/19/24  9:50p   60.0   60.1   60.0    95   58.6   4.0    NE   0.67  10.0   ENE   60.0   60.4   60.4   57.9  30.184  0.00  0.00     0     0.00      0     0.0  0.00   0.0   0.035   0.000   73.2    58   57.5   73.5  10.62  .0739    0.000   203    7    100.0   10 
 7/19/24 10:00p   59.8   60.0   59.8    95   58.4   5.0    NE   0.83  11.0   NNE   59.8   60.2   60.2   57.7  30.185  0.00  0.00     0     0.00      0     0.0  0.00   0.0   0.036   0.000   73.2    58   57.5   73.5  10.62  .0739    0.000   202    7    100.0   10 
 7/19/24 10:10p   59.7   59.8   59.6    95   58.3   6.0   NNE   1.00  10.0    NE   59.2   60.1   59.6   57.1  30.186  0.00  0.00     0     0.00      0     0.0  0.00   0.0   0.037   0.000   73.1    58   57.4   73.4  10.63  .0740    0.000   201    7    100.0   10 
 7/19/24 10:20p   59.5   59.7   59.5    95   58.1   5.0   NNE   0.83  10.0   NNE   59.4   59.9   59.8   57.3  30.186  0.00  0.00     0     0.00      0     0.0  0.00   0.0   0.038   0.000   73.1    58   57.4   73.4  10.63  .0740    0.000   203    7    100.0   10 
 7/19/24 10:30p   59.4   59.6   59.3    95   58.0   6.0   NNE   1.00  10.0   NNE   58.9   59.8   59.3   56.8  30.184  0.00  0.00     0     0.00      0     0.0  0.00   0.0   0.039   0.000   73.1    58   57.4   73.4  10.63  .0740    0.000   204    7    100.0   10 
 7/19/24 10:40p   59.1   59.4   59.1    95   57.7   5.0   NNE   0.83  10.0   NNE   58.9   59.5   59.3   56.8  30.185  0.00  0.00     0     0.00      0     0.0  0.00   0.0   0.041   0.000   73.0    58   57.3   73.2  10.63  .0740    0.000   204    7    100.0   10 
 7/19/24 10:50p   59.0   59.1   59.0    95   57.6   6.0   NNE   1.00   9.0   NNE   58.4   59.4   58.8   56.3  30.184  0.00  0.00     0     0.00      0     0.0  0.00   0.0   0.042   0.000   73.0    58   57.3   73.2  10.63  .0740    0.000   203    7    100.0   10 
 7/19/24 11:00p   58.8   59.0   58.7    95   57.4   5.0   NNE   0.83  10.0    NE   58.6   59.2   59.0   56.5  30.183  0.00  0.00     0     0.00      0     0.0  0.00   0.0   0.043   0.000   73.0    58   57.3   73.2  10.63  .0740    0.000   204    7    100.0   10 
 7/19/24 11:10p   58.7   58.8   58.6    96   57.6   5.0    NE   0.83  10.0     N   58.4   59.1   58.8   56.3  30.184  0.00  0.00     0     0.00      0     0.0  0.00   0.0   0.044   0.000   72.9    58   57.3   73.1  10.63  .0740    0.000   203    7    100.0   10 
 7/19/24 11:20p   58.9   58.9   58.6    96   57.8   4.0    NE   0.67   8.0   NNE   58.9   59.3   59.3   56.8  30.187  0.00  0.00     0     0.00      0     0.0  0.00   0.0   0.042   0.000   72.9    58   57.3   73.1  10.63  .0740    0.000   201    7    100.0   10 
 7/19/24 11:30p   59.1   59.1   58.8    96   58.0   4.0    NE   0.67  10.0   ENE   59.1   59.5   59.5   57.0  30.183  0.00  0.00     0     0.00      0     0.0  0.00   0.0   0.041   0.000   72.9    59   57.7   73.2  10.83  .0740    0.000   202    7    100.0   10 
 7/19/24 11:40p   59.2   59.2   59.1    96   58.1   4.0    NE   0.67   9.0   NNE   59.2   59.6   59.6   57.1  30.181  0.00  0.00     0     0.00      0     0.0  0.00   0.0   0.040   0.000   72.9    58   57.3   73.1  10.63  .0740    0.000   204    7    100.0   10 
 7/19/24 11:50p   59.2   59.3   59.1    96   58.1   4.0    NE   0.67  11.0    NE   59.2   59.6   59.6   57.1  30.181  0.00  0.00     0     0.00      0     0.0  0.00   0.0   0.040   0.000   72.8    59   57.6   73.0  10.84  .0740    0.000   202    7    100.0   10 
 7/20/24 12:00a   59.2   59.3   59.1    96   58.1   4.0   ENE   0.67  13.0    NE   59.2   59.6   59.6   57.1  30.180  0.00  0.00     0     0.00      0     0.0  0.00   0.0   0.040   0.000   72.8    58   57.2   72.9  10.64  .0740    0.000   204    7    100.0   10 
 7/20/24 12:10a   59.1   59.3   59.1    96   58.0   6.0    NE   1.00  12.0    NE   58.5   59.5   58.9   56.4  30.178  0.00  0.00     0     0.00      0     0.0  0.00   0.0   0.041   0.000   72.8    59   57.6   73.0  10.84  .0740    0.000   201    7    100.0   10 
 7/20/24 12:20a   59.0   59.1   59.0    96   57.9   4.0    NE   0.67  11.0    NE   59.0   59.4   59.4   56.9  30.177  0.00  0.00     0     0.00      0     0.0  0.00   0.0   0.042   0.000   72.7    59   57.5   72.9  10.84  .0740    0.000   203    7    100.0   10 
 7/20/24 12:30a   59.0   59.0   58.9    96   57.9   5.0    NE   0.83  14.0    NE   58.8   59.4   59.2   56.7  30.178  0.00  0.00     0     0.00      0     0.0  0.00   0.0   0.042   0.000   72.7    59   57.5   72.9  10.84  .0740    0.000   204    7    100.0   10 
 7/20/24 12:40a   59.1   59.1   58.9    96   58.0   4.0    NE   0.67  10.0    NE   59.1   59.5   59.5   57.0  30.182  0.00  0.00     0     0.00      0     0.0  0.00   0.0   0.041   0.000   72.7    59   57.5   72.9  10.84  .0740    0.000   203    7    100.0   10 
 7/20/24 12:50a   59.0   59.1   59.0    96   57.9   3.0    NE   0.50   9.0    NE   59.0   59.4   59.4   56.9  30.181  0.00  0.00     0     0.00      0     0.0  0.00   0.0   0.042   0.000   72.7    58   57.1   72.8  10.64  .0740    0.000   202    7    100.0   10 
 7/20/24  1:00a   58.9   59.0   58.8    96   57.8   4.0    NE   0.67  10.0    NE   58.9   59.3   59.3   56.8  30.180  0.00  0.00     0     0.00      0     0.0  0.00   0.0   0.042   0.000   72.6    59   57.4   72.7  10.85  .0740    0.000   203    7    100.0   10 
 7/20/24  1:10a   58.7   58.9   58.7    96   57.6   6.0    NE   1.00  13.0    NE   58.0   59.1   58.4   55.9  30.178  0.00  0.00     0     0.00      0     0.0  0.00   0.0   0.044   0.000   72.6    59   57.4   72.7  10.85  .0740    0.000   203    7    100.0   10 
 7/20/24  1:20a   58.7   58.7   58.6    96   57.6   5.0    NE   0.83  13.0    NE   58.4   59.1   58.8   56.3  30.175  0.00  0.00     0     0.00      0     0.0  0.00   0.0   0.044   0.000   72.6    59   57.4   72.7  10.85  .0740    0.000   202    7    100.0   10 
 7/20/24  1:30a   58.6   58.6   58.5    96   57.5   6.0    NE   1.00  13.0    NE   57.9   59.0   58.3   55.8  30.175  0.00  0.00     0     0.00      0     0.0  0.00   0.0   0.044   0.000   72.5    59   57.4   72.6  10.85  .0740    0.000   203    7    100.0   10 
 7/20/24  1:40a   58.7   58.7   58.5    96   57.6   6.0   ENE   1.00  13.0    NE   58.0   59.1   58.4   55.9  30.174  0.00  0.00     0     0.00      0     0.0  0.00   0.0   0.044   0.000   72.5    59   57.4   72.6  10.85  .0740    0.000   204    7    100.0   10 
 7/20/24  1:50a   58.7   58.7   58.6    96   57.6   5.0   ENE   0.83  13.0    NE   58.4   59.1   58.8   56.3  30.172  0.00  0.00     0     0.00      0     0.0  0.00   0.0   0.044   0.000   72.4    59   57.3   72.4  10.85  .0740    0.000   202    7    100.0   10 
 7/20/24  2:00a   58.7   58.8   58.6    96   57.6   5.0   ENE   0.83  12.0   NNE   58.4   59.1   58.8   56.3  30.172  0.00  0.00     0     0.00      0     0.0  0.00   0.0   0.044   0.000   72.4    59   57.3   72.4  10.85  .0740    0.000   202    7    100.0   10 
 7/20/24  2:10a   58.6   58.7   58.6    96   57.5   5.0   ENE   0.83  13.0    NE   58.3   59.0   58.7   56.2  30.170  0.00  0.00     0     0.00      0     0.0  0.00   0.0   0.044   0.000   72.3    59   57.2   72.3  10.86  .0740    0.000   202    7    100.0   10 
 7/20/24  2:20a   58.6   58.7   58.6    96   57.5   5.0   ENE   0.83  12.0   NNE   58.3   59.0   58.7   56.2  30.168  0.00  0.00     0     0.00      0     0.0  0.00   0.0   0.044   0.000   72.4    59   57.3   72.4  10.85  .0740    0.000   203    7    100.0   10 
 7/20/24  2:30a   58.5   58.6   58.5    96   57.4   5.0    NE   0.83  13.0   ENE   58.2   58.9   58.6   56.1  30.169  0.00  0.00     0     0.00      0     0.0  0.00   0.0   0.045   0.000   72.3    59   57.2   72.3  10.86  .0740    0.000   203    7    100.0   10 
 7/20/24  2:40a   58.5   58.6   58.5    96   57.4   6.0    NE   1.00  14.0    NE   57.8   58.9   58.2   55.7  30.169  0.00  0.00     0     0.00      0     0.0  0.00   0.0   0.045   0.000   72.3    59   57.2   72.3  10.86  .0740    0.000   204    7    100.0   10 
 7/20/24  2:50a   58.5   58.6   58.5    96   57.4   5.0    NE   0.83  14.0    NE   58.2   58.9   58.6   56.1  30.169  0.00  0.00     0     0.00      0     0.0  0.00   0.0   0.045   0.000   72.2    59   57.1   72.1  10.86  .0741    0.000   204    7    100.0   10 
 7/20/24  3:00a   58.5   58.6   58.5    96   57.4   5.0    NE   0.83  12.0    NE   58.2   58.9   58.6   56.1  30.168  0.00  0.00     0     0.00      0     0.0  0.00   0.0   0.045   0.000   72.2    59   57.1   72.1  10.86  .0741    0.000   201    7    100.0   10 
 7/20/24  3:10a   58.6   58.6   58.5    96   57.5   4.0   ENE   0.67   7.0   ENE   58.6   59.0   59.0   56.5  30.169  0.00  0.00     0     0.00      0     0.0  0.00   0.0   0.044   0.000   72.2    59   57.1   72.1  10.86  .0741    0.000   202    7    100.0   10 
 7/20/24  3:20a   58.6   58.6   58.5    97   57.8   5.0   ENE   0.83  11.0    NE   58.3   59.0   58.7   56.2  30.169  0.00  0.00     0     0.00      0     0.0  0.00   0.0   0.044   0.000   72.2    59   57.1   72.1  10.86  .0741    0.000   199    7    100.0   10 
 7/20/24  3:30a   58.6   58.6   58.5    96   57.5   4.0    NE   0.67   9.0    NE   58.6   59.0   59.0   56.5  30.170  0.00  0.00     0     0.00      0     0.0  0.00   0.0   0.044   0.000   72.1    59   57.0   72.0  10.87  .0741    0.000   204    7    100.0   10 
 7/20/24  3:40a   58.5   58.6   58.5    96   57.4   4.0    NE   0.67  10.0    NE   58.5   58.9   58.9   56.4  30.168  0.00  0.00     0     0.00      0     0.0  0.00   0.0   0.045   0.000   72.1    59   57.0   72.0  10.87  .0741    0.000   203    7    100.0   10 
 7/20/24  3:50a   58.5   58.6   58.5    96   57.4   4.0    NE   0.67   9.0   ENE   58.5   58.9   58.9   56.4  30.168  0.00  0.00     0     0.00      0     0.0  0.00   0.0   0.045   0.000   72.1    59   57.0   72.0  10.87  .0741    0.000   204    7    100.0   10 
 7/20/24  4:00a   58.5   58.5   58.5    96   57.4   3.0    NE   0.50   8.0   ENE   58.5   58.9   58.9   56.4  30.165  0.00  0.00     0     0.00      0     0.0  0.00   0.0   0.045   0.000   72.1    59   57.0   72.0  10.87  .0741    0.000   203    7    100.0   10 
 7/20/24  4:10a   58.5   58.5   58.4    96   57.4   3.0    NE   0.50   9.0    NE   58.5   58.9   58.9   56.4  30.163  0.00  0.00     0     0.00      0     0.0  0.00   0.0   0.045   0.000   72.1    58   56.5   71.9  10.67  .0741    0.000   204    7    100.0   10 
 7/20/24  4:20a   58.4   58.5   58.4    96   57.3   3.0    NE   0.50  10.0    NE   58.4   58.8   58.8   56.3  30.165  0.00  0.00     0     0.00      0     0.0  0.00   0.0   0.046   0.000   72.1    59   57.0   72.0  10.87  .0741    0.000   200    7    100.0   10 
 7/20/24  4:30a   58.2   58.5   58.2    96   57.1   3.0    NE   0.50   9.0    NE   58.2   58.5   58.5   56.0  30.164  0.00  0.00     0     0.00      0     0.0  0.00   0.0   0.047   0.000   72.0    58   56.4   71.7  10.67  .0741    0.000   203    7    100.0   10 
 7/20/24  4:40a   58.1   58.3   58.1    96   57.0   3.0    NE   0.50   6.0    NE   58.1   58.4   58.4   55.8  30.160  0.00  0.00     0     0.00      0     0.0  0.00   0.0   0.048   0.000   72.0    58   56.4   71.7  10.67  .0741    0.000   203    7    100.0   10 
 7/20/24  4:50a   58.2   58.2   58.1    96   57.1   3.0    NE   0.50  11.0    NE   58.2   58.5   58.5   56.0  30.161  0.00  0.00     0     0.00      0     0.0  0.00   0.0   0.047   0.000   72.0    58   56.4   71.7  10.67  .0741    0.000   202    7    100.0   10 
 7/20/24  5:00a   58.2   58.3   58.2    96   57.1   4.0    NE   0.67  10.0    NE   58.2   58.5   58.5   56.0  30.158  0.00  0.00     0     0.00      0     0.0  0.00   0.0   0.047   0.000   72.0    58   56.4   71.7  10.67  .0741    0.000   202    7    100.0   10 
Email: AdamSPAM@StormwatchersRetreat.com (To send me email remove the word 'SPAM' from my email address.)